Time;durP1;ratioP1;P1;durP2;ratioP2;P2;SDS_P1;SDS_P2;PMS_P1;PMS_P2;Temp;Humidity;BMP_temperature;BMP_pressure;BME280_temperature;BME280_humidity;BME280_pressure;Samples;Min_cycle;Max_cycle;Signal;HPM_P1;HPM_P2
2021/12/17 00:02:58;;;;;;;8.15;5.32;;;;;;;8.72;100.00;104128.94;5092540;28;20109;-34
2021/12/17 00:05:13;;;;;;;6.57;4.22;;;;;;;8.74;100.00;104126.81;5091773;28;20051;-31
2021/12/17 00:07:40;;;;;;;8.95;6.07;;;;;;;8.75;100.00;104126.63;5075666;28;20406;-37
2021/12/17 00:10:17;;;;;;;14.05;7.78;;;;;;;8.72;100.00;104124.25;5092727;28;20056;-33
2021/12/17 00:12:45;;;;;;;14.25;7.30;;;;;;;8.67;100.00;104132.34;5092667;28;20594;-33
2021/12/17 00:15:15;;;;;;;10.05;6.28;;;;;;;8.64;100.00;104138.31;5091419;28;20048;-32
2021/12/17 00:17:52;;;;;;;8.02;5.53;;;;;;;8.62;100.00;104130.16;5092863;28;20051;-36
2021/12/17 00:20:47;;;;;;;7.38;4.80;;;;;;;8.63;100.00;104131.88;5089422;28;20080;-38
2021/12/17 00:48:35;;;;;;;6.43;3.60;;;;;;;8.81;100.00;104134.13;5091671;28;20071;-34
2021/12/17 00:51:40;;;;;;;9.63;5.38;;;;;;;8.80;100.00;104131.53;5089921;28;20055;-29
2021/12/17 00:54:13;;;;;;;6.00;3.72;;;;;;;8.78;100.00;104130.91;5090805;28;20076;-36
2021/12/17 00:56:41;;;;;;;5.97;3.63;;;;;;;8.79;100.00;104130.69;5091485;28;20135;-38
2021/12/17 00:59:09;;;;;;;5.97;3.75;;;;;;;8.81;100.00;104127.69;5090475;28;20048;-31
2021/12/17 01:01:37;;;;;;;5.82;3.92;;;;;;;8.81;100.00;104131.34;5085914;28;20443;-35
2021/12/17 01:04:06;;;;;;;6.35;4.00;;;;;;;8.83;100.00;104133.91;5089892;28;20074;-35
2021/12/17 01:06:34;;;;;;;5.38;3.47;;;;;;;8.81;100.00;104133.25;5090549;28;20048;-37
2021/12/17 01:09:04;;;;;;;5.55;3.50;;;;;;;8.82;100.00;104127.47;5090100;28;20058;-37
2021/12/17 01:11:33;;;;;;;4.35;2.70;;;;;;;8.83;100.00;104128.34;5089614;28;20051;-32
2021/12/17 01:14:10;;;;;;;4.25;2.72;;;;;;;8.85;100.00;104123.44;5089946;28;20062;-39
2021/12/17 01:16:57;;;;;;;7.40;3.80;;;;;;;8.83;100.00;104129.19;5091187;28;20044;-38
2021/12/17 01:20:15;;;;;;;5.13;2.83;;;;;;;8.84;100.00;104138.41;5091011;28;20052;-37
2021/12/17 01:22:55;;;;;;;4.55;2.30;;;;;;;8.84;100.00;104128.13;5091471;28;20044;-35
2021/12/17 01:25:43;;;;;;;4.47;2.40;;;;;;;8.88;100.00;104134.16;5074583;28;20047;-33
2021/12/17 01:40:59;;;;;;;4.72;3.00;;;;;;;8.89;100.00;104130.31;5083978;28;20056;-32
2021/12/17 01:43:30;;;;;;;4.85;2.72;;;;;;;8.87;100.00;104129.66;5090047;28;20056;-31
2021/12/17 01:45:59;;;;;;;5.32;2.80;;;;;;;8.89;100.00;104135.88;5071771;28;20147;-36
2021/12/17 01:48:36;;;;;;;4.00;2.50;;;;;;;8.91;100.00;104128.19;5089738;28;20046;-39
2021/12/17 01:56:52;;;;;;;5.93;2.40;;;;;;;8.88;100.00;104136.94;5090210;28;20105;-39
2021/12/17 01:59:23;;;;;;;8.38;3.60;;;;;;;8.88;100.00;104137.81;5089602;28;20390;-33
2021/12/17 02:01:54;;;;;;;10.38;4.78;;;;;;;8.85;100.00;104135.44;5089033;28;20060;-33
2021/12/17 02:04:22;;;;;;;6.07;3.55;;;;;;;8.84;100.00;104143.97;5091372;28;20036;-34
2021/12/17 02:06:50;;;;;;;5.63;3.20;;;;;;;8.84;100.00;104143.97;5090582;28;20048;-34
2021/12/17 02:29:16;;;;;;;6.32;3.35;;;;;;;8.82;100.00;104158.13;5089469;28;20062;-39
2021/12/17 02:31:45;;;;;;;5.55;3.60;;;;;;;8.84;100.00;104155.97;5091249;28;21040;-37
2021/12/17 02:34:30;;;;;;;7.05;3.80;;;;;;;8.86;100.00;104156.63;5088987;28;20073;-31
2021/12/17 02:37:03;;;;;;;7.65;3.42;;;;;;;8.85;100.00;104152.13;5090763;28;20066;-36
2021/12/17 02:40:06;;;;;;;7.15;4.07;;;;;;;8.84;100.00;104143.97;5090439;28;20101;-29
2021/12/17 02:45:31;;;;;;;7.22;3.75;;;;;;;8.83;100.00;104151.47;5089777;28;20044;-38
2021/12/17 02:45:37;;;;;;;5.65;3.42;;;;;;;8.83;100.00;104140.34;5087573;28;20127;-37
2021/12/17 02:48:08;;;;;;;9.43;4.82;;;;;;;8.84;100.00;104139.28;5089292;28;20109;-38
2021/12/17 02:50:40;;;;;;;13.50;5.93;;;;;;;8.85;100.00;104137.34;5088355;28;20078;-36
2021/12/17 02:53:09;;;;;;;12.65;6.40;;;;;;;8.82;100.00;104130.25;5073812;28;20131;-38
2021/12/17 02:55:40;;;;;;;10.50;6.22;;;;;;;8.81;100.00;104134.13;5090676;28;20047;-34
2021/12/17 02:58:09;;;;;;;14.32;6.05;;;;;;;8.79;100.00;104122.31;5090567;28;20094;-35
2021/12/17 03:00:40;;;;;;;14.82;7.05;;;;;;;8.79;100.00;104122.31;5091032;28;20040;-31
2021/12/17 03:03:10;;;;;;;11.43;5.80;;;;;;;8.78;100.00;104117.84;5093635;28;20048;-38
2021/12/17 03:05:40;;;;;;;17.25;7.38;;;;;;;8.77;100.00;104116.13;5093368;28;20032;-31
2021/12/17 03:08:14;;;;;;;14.02;6.78;;;;;;;8.77;100.00;104115.28;5094502;28;20079;-35
2021/12/17 03:10:42;;;;;;;10.98;5.72;;;;;;;8.77;100.00;104116.13;5092588;28;20040;-36
2021/12/17 03:13:11;;;;;;;7.10;4.13;;;;;;;8.78;100.00;104115.06;5093871;28;20040;-35
2021/12/17 03:15:45;;;;;;;7.25;3.75;;;;;;;8.79;100.00;104107.56;5093330;28;20040;-38
2021/12/17 03:23:43;;;;;;;6.15;3.42;;;;;;;8.82;100.00;104115.47;5093007;28;20318;-33
2021/12/17 03:26:20;;;;;;;6.13;3.50;;;;;;;8.84;100.00;104111.44;5091782;28;20044;-36
2021/12/17 03:28:50;;;;;;;4.95;2.55;;;;;;;8.87;100.00;104112.94;5093284;28;20040;-39
2021/12/17 03:31:20;;;;;;;5.07;2.95;;;;;;;8.89;100.00;104102.47;5090792;28;20066;-40
2021/12/17 03:33:51;;;;;;;7.90;3.80;;;;;;;8.90;100.00;104106.97;5092283;28;20131;-38
2021/12/17 03:36:21;;;;;;;6.72;3.60;;;;;;;8.92;100.00;104108.47;5092649;28;20052;-35
2021/12/17 03:38:51;;;;;;;5.97;3.25;;;;;;;8.93;100.00;104104.63;5091750;28;20040;-39
2021/12/17 03:41:23;;;;;;;6.38;3.00;;;;;;;8.94;100.00;104113.84;5092157;28;20052;-35
2021/12/17 03:44:02;;;;;;;;;;;;;;;8.89;100.00;104119.16;5092596;28;20048;-44
2021/12/17 03:46:51;;;;;;;9.98;4.65;;;;;;;8.86;100.00;104114.88;5092156;28;19924;-38
2021/12/17 03:49:22;;;;;;;7.20;3.60;;;;;;;8.90;100.00;104115.31;5092387;28;20054;-39
2021/12/17 03:52:04;;;;;;;6.68;3.65;;;;;;;8.93;100.00;104117.69;5091629;28;20063;-41
2021/12/17 03:54:37;;;;;;;7.40;3.78;;;;;;;8.94;100.00;104120.28;5092358;28;20056;-37
2021/12/17 03:57:10;;;;;;;7.93;3.22;;;;;;;8.95;100.00;104119.19;5091055;28;20140;-42
2021/12/17 03:59:43;;;;;;;6.63;3.60;;;;;;;8.97;100.00;104116.22;5091249;28;20142;-36
2021/12/17 04:02:12;;;;;;;5.50;3.05;;;;;;;8.99;100.00;104111.28;5091648;28;20520;-33
2021/12/17 04:04:41;;;;;;;9.00;4.65;;;;;;;8.99;100.00;104112.13;5091993;28;20131;-39
2021/12/17 04:07:36;;;;;;;16.33;6.65;;;;;;;8.97;100.00;104119.00;5065977;28;20071;-35
2021/12/17 04:10:08;;;;;;;13.07;5.50;;;;;;;8.97;100.00;104124.56;5092632;28;20453;-36
2021/12/17 04:12:48;;;;;;;9.65;4.50;;;;;;;8.97;100.00;104130.13;5091340;28;20124;-43
2021/12/17 04:15:17;;;;;;;8.15;4.35;;;;;;;8.97;100.00;104121.78;5090646;28;20105;-34
2021/12/17 04:17:48;;;;;;;8.07;4.43;;;;;;;8.98;100.00;104127.16;5092532;28;20054;-40
2021/12/17 04:20:17;;;;;;;8.82;4.63;;;;;;;9.02;100.00;104123.91;5091177;28;20048;-35
2021/12/17 04:22:45;;;;;;;11.00;5.82;;;;;;;9.03;100.00;104126.50;5091480;28;20048;-35
2021/12/17 04:25:14;;;;;;;9.10;4.95;;;;;;;9.04;100.00;104128.22;5091109;28;20048;-34
2021/12/17 04:27:42;;;;;;;16.60;8.63;;;;;;;9.04;100.00;104122.66;5089822;28;20048;-36
2021/12/17 04:30:11;;;;;;;8.93;5.13;;;;;;;9.05;100.00;104126.28;5091844;28;20413;-38
2021/12/17 04:32:39;;;;;;;14.23;8.05;;;;;;;9.05;100.00;104124.34;5090542;28;20044;-37
2021/12/17 04:35:07;;;;;;;13.00;7.40;;;;;;;9.07;100.00;104133.38;5091478;28;20052;-37
2021/12/17 04:37:49;;;;;;;9.57;6.03;;;;;;;9.06;100.00;104131.66;5090803;28;20066;-34
2021/12/17 04:40:21;;;;;;;18.17;8.52;;;;;;;9.08;100.00;104134.22;5092205;28;20097;-32
2021/12/17 04:42:59;;;;;;;10.25;6.68;;;;;;;9.07;100.00;104121.38;5090110;28;20422;-37
2021/12/17 04:45:36;;;;;;;7.85;4.82;;;;;;;9.06;100.00;104114.94;5090731;28;20066;-32
2021/12/17 04:59:35;;;;;;;9.00;5.25;;;;;;;9.04;100.00;104138.50;5090307;28;20051;-34
2021/12/17 05:02:03;;;;;;;9.73;5.97;;;;;;;9.05;100.00;104140.22;5090908;28;20463;-40
2021/12/17 05:04:46;;;;;;;8.93;5.93;;;;;;;9.05;100.00;104129.06;5087277;28;20048;-31
2021/12/17 05:07:16;;;;;;;7.00;4.60;;;;;;;9.06;100.00;104131.66;5090481;28;20499;-31
2021/12/17 05:09:55;;;;;;;6.75;4.22;;;;;;;9.06;100.00;104130.78;5088646;28;20479;-31
2021/12/17 05:20:49;;;;;;;7.03;4.45;;;;;;;9.05;100.00;104121.56;5086897;28;20044;-39
2021/12/17 05:23:22;;;;;;;4.40;3.10;;;;;;;9.07;100.00;104129.72;5090458;28;20052;-37
2021/12/17 05:25:51;;;;;;;4.78;3.15;;;;;;;9.07;100.00;104122.22;5090394;28;20052;-37
2021/12/17 05:28:23;;;;;;;7.97;5.28;;;;;;;9.08;100.00;104137.00;5073402;28;20054;-37
2021/12/17 05:30:51;;;;;;;4.70;3.25;;;;;;;9.06;100.00;104137.22;5089169;28;20044;-35
2021/12/17 05:33:21;;;;;;;3.67;2.55;;;;;;;9.08;100.00;104148.16;5090328;28;20558;-33
2021/12/17 05:35:50;;;;;;;4.18;2.88;;;;;;;9.08;100.00;104143.44;5090107;28;20040;-38
2021/12/17 05:38:22;;;;;;;4.75;2.83;;;;;;;9.08;100.00;104140.66;5089481;28;20066;-37
2021/12/17 05:40:50;;;;;;;4.15;2.60;;;;;;;9.07;100.00;104144.50;5090737;28;20051;-33
2021/12/17 05:43:19;;;;;;;3.25;2.20;;;;;;;9.08;100.00;104143.44;5090066;28;20058;-32
2021/12/17 05:46:02;;;;;;;3.30;2.30;;;;;;;9.09;100.00;104149.88;5088247;28;20036;-31
2021/12/17 05:48:30;;;;;;;4.22;2.30;;;;;;;9.07;100.00;104146.44;5090196;28;20071;-34
2021/12/17 05:51:00;;;;;;;3.47;2.25;;;;;;;9.08;100.00;104150.94;5090957;28;20131;-35
2021/12/17 05:53:29;;;;;;;3.83;2.53;;;;;;;9.08;100.00;104142.59;5089073;28;20052;-39
2021/12/17 05:55:59;;;;;;;3.58;2.65;;;;;;;9.09;100.00;104155.44;5089912;28;20048;-33
2021/12/17 05:58:38;;;;;;;4.53;3.10;;;;;;;9.08;100.00;104156.53;5089112;28;20067;-34
2021/12/17 06:01:07;;;;;;;3.92;2.40;;;;;;;9.08;100.00;104157.38;5089207;28;20408;-32
2021/12/17 06:03:51;;;;;;;3.30;2.33;;;;;;;9.07;100.00;104154.78;5090288;28;20051;-34
2021/12/17 06:06:26;;;;;;;4.03;2.70;;;;;;;9.08;100.00;104151.81;5090296;28;20036;-37
2021/12/17 06:08:55;;;;;;;5.82;3.05;;;;;;;9.06;100.00;104153.06;5089878;28;20054;-32
2021/12/17 06:11:23;;;;;;;4.40;2.55;;;;;;;9.07;100.00;104154.78;5089462;28;20054;-33
2021/12/17 06:13:51;;;;;;;3.38;2.20;;;;;;;9.07;100.00;104158.44;5089085;28;20457;-37
2021/12/17 06:16:24;;;;;;;5.53;3.97;;;;;;;9.07;100.00;104161.22;5089399;28;20127;-32
2021/12/17 06:18:52;;;;;;;4.15;2.90;;;;;;;9.08;100.00;104159.31;5089843;28;20048;-35
2021/12/17 06:21:21;;;;;;;4.10;3.00;;;;;;;9.08;100.00;104157.38;5088804;28;20048;-34
2021/12/17 06:23:48;;;;;;;4.13;2.65;;;;;;;9.09;100.00;104170.25;5089846;28;20050;-37
2021/12/17 06:26:16;;;;;;;7.55;4.35;;;;;;;9.10;100.00;104171.09;5089412;28;20105;-38
2021/12/17 06:28:49;;;;;;;5.82;4.13;;;;;;;9.09;100.00;104173.03;5088425;28;20047;-37
2021/12/17 06:31:19;;;;;;;6.43;4.45;;;;;;;9.07;100.00;104175.16;5090573;28;20052;-40
2021/12/17 06:33:49;;;;;;;5.28;3.67;;;;;;;9.06;100.00;104175.38;5092783;28;20040;-36
2021/12/17 06:36:16;;;;;;;5.13;3.33;;;;;;;9.06;100.00;104169.78;5092981;28;20078;-40
2021/12/17 06:38:45;;;;;;;6.90;4.55;;;;;;;9.06;100.00;104176.22;5091708;28;20093;-36
2021/12/17 06:41:14;;;;;;;5.13;3.20;;;;;;;9.05;100.00;104177.28;5092506;28;20044;-32
2021/12/17 06:43:44;;;;;;;5.25;3.47;;;;;;;9.06;100.00;104176.22;5093161;28;20052;-35
2021/12/17 06:46:22;;;;;;;7.53;4.32;;;;;;;9.07;100.00;104191.00;5093489;28;20040;-39
2021/12/17 06:49:08;;;;;;;6.97;4.40;;;;;;;9.06;100.00;104192.06;5092506;28;20048;-31
2021/12/17 06:54:53;;;;;;;6.10;3.28;;;;;;;9.04;100.00;104188.63;5093470;28;20252;-36
2021/12/17 07:01:13;;;;;;;4.28;2.60;;;;;;;9.02;100.00;104197.19;5093786;28;20059;-35
2021/12/17 07:21:39;;;;;;;4.22;2.88;;;;;;;8.97;100.00;104203.41;5089706;28;20452;-34
2021/12/17 07:32:51;;;;;;;4.50;2.80;;;;;;;8.97;100.00;104227.63;5078008;28;20051;-35
2021/12/17 07:41:19;;;;;;;5.15;2.90;;;;;;;8.92;100.00;104219.88;5091478;28;20047;-38
2021/12/17 07:43:55;;;;;;;4.53;2.50;;;;;;;8.94;100.00;104219.69;5088870;28;20505;-36
2021/12/17 07:46:24;;;;;;;5.32;2.63;;;;;;;8.97;100.00;104216.47;5090548;28;20139;-37
2021/12/17 07:48:51;;;;;;;3.95;2.33;;;;;;;8.97;100.00;104210.91;5090422;28;20076;-36
2021/12/17 07:51:22;;;;;;;3.45;2.10;;;;;;;8.98;100.00;104207.06;5085565;28;20048;-32
2021/12/17 07:53:58;;;;;;;3.65;2.10;;;;;;;8.98;100.00;104196.78;5089814;28;20048;-38
2021/12/17 07:56:30;;;;;;;3.67;2.10;;;;;;;9.02;100.00;104207.47;5090993;28;20044;-40
2021/12/17 07:59:05;;;;;;;3.63;1.88;;;;;;;9.01;100.00;104206.63;5090413;28;20145;-37
2021/12/17 08:01:35;;;;;;;3.25;1.88;;;;;;;9.03;100.00;104209.19;5090640;28;20047;-33
2021/12/17 08:04:03;;;;;;;3.90;1.95;;;;;;;9.03;100.00;104210.06;5091263;28;20048;-33
2021/12/17 08:06:39;;;;;;;2.92;1.45;;;;;;;9.04;100.00;104206.22;5090522;28;20109;-32
2021/12/17 08:09:14;;;;;;;4.07;2.20;;;;;;;9.05;100.00;104212.66;5091500;28;20052;-32
2021/12/17 08:11:54;;;;;;;3.40;2.00;;;;;;;9.05;100.00;104218.22;5090272;28;20044;-39
2021/12/17 08:14:24;;;;;;;3.65;2.00;;;;;;;9.05;100.00;104219.06;5089884;28;20059;-37
2021/12/17 08:17:06;;;;;;;3.92;2.00;;;;;;;9.05;100.00;104216.28;5088962;28;20336;-34
2021/12/17 08:25:26;;;;;;;3.00;1.77;;;;;;;9.07;100.00;104218.88;5091170;28;20076;-33
2021/12/17 08:28:04;;;;;;;3.85;2.00;;;;;;;9.05;100.00;104221.00;5079020;28;20071;-38
2021/12/17 08:30:39;;;;;;;3.00;1.70;;;;;;;9.07;100.00;104218.88;5091169;28;20071;-38
2021/12/17 08:33:20;;;;;;;3.40;1.50;;;;;;;9.08;100.00;104226.16;5077837;28;20049;-40
2021/12/17 08:35:50;;;;;;;3.20;1.80;;;;;;;9.09;100.00;104225.09;5085062;28;20044;-36
2021/12/17 08:38:25;;;;;;;6.15;3.40;;;;;;;9.11;100.00;104231.31;5081117;28;20051;-36
2021/12/17 08:40:59;;;;;;;5.40;2.83;;;;;;;9.11;100.00;104232.19;5090173;28;20047;-37
2021/12/17 08:43:27;;;;;;;3.53;2.00;;;;;;;9.11;100.00;104231.31;5090723;28;20047;-34
2021/12/17 08:45:57;;;;;;;3.75;2.00;;;;;;;9.13;100.00;104230.06;5090587;28;20040;-33
2021/12/17 08:48:45;;;;;;;3.42;2.10;;;;;;;9.13;100.00;104227.28;5081128;28;20052;-39
2021/12/17 08:51:37;;;;;;;3.40;1.85;;;;;;;9.13;100.00;104224.47;5090301;28;20059;-36
2021/12/17 08:54:05;;;;;;;3.80;2.10;;;;;;;9.16;100.00;104228.78;5090664;28;20052;-34
2021/12/17 08:56:42;;;;;;;3.40;1.95;;;;;;;9.19;100.00;104228.38;5090345;28;20036;-32
2021/12/17 08:59:13;;;;;;;2.97;1.55;;;;;;;9.18;100.00;104223.88;5090989;28;20048;-33
2021/12/17 09:02:10;;;;;;;3.38;1.85;;;;;;;9.18;100.00;104229.44;5091152;28;20139;-33
2021/12/17 09:04:44;;;;;;;3.42;1.88;;;;;;;9.20;100.00;104225.34;5090981;28;20417;-33
2021/12/17 09:07:15;;;;;;;3.55;1.80;;;;;;;9.21;100.00;104226.22;5090053;28;20055;-38
2021/12/17 09:09:45;;;;;;;3.55;1.70;;;;;;;9.23;100.00;104227.72;5090146;28;20044;-32
2021/12/17 09:12:25;;;;;;;3.63;1.90;;;;;;;9.23;100.00;104233.31;5090030;28;20404;-34
2021/12/17 09:14:56;;;;;;;2.78;1.60;;;;;;;9.23;100.00;104232.44;5090926;28;20052;-33
2021/12/17 09:17:42;;;;;;;2.65;1.60;;;;;;;9.23;100.00;104227.72;5091060;28;20059;-38
2021/12/17 09:20:12;;;;;;;3.67;1.77;;;;;;;9.26;100.00;104232.03;5090704;28;20066;-36
2021/12/17 09:22:41;;;;;;;3.80;2.13;;;;;;;9.27;100.00;104229.03;5089312;28;20097;-37
2021/12/17 09:25:10;;;;;;;4.85;2.85;;;;;;;9.30;100.00;104234.19;5090277;28;20475;-34
2021/12/17 09:27:53;;;;;;;3.22;1.90;;;;;;;9.31;100.00;104243.41;5089060;28;20070;-34
2021/12/17 09:30:29;;;;;;;3.65;2.20;;;;;;;9.33;100.00;104242.16;5091202;28;20102;-32
2021/12/17 09:32:57;;;;;;;4.32;2.75;;;;;;;9.37;100.00;104233.38;5091314;28;20497;-37
2021/12/17 09:35:25;;;;;;;4.78;2.67;;;;;;;9.38;100.00;104241.53;5091560;28;20082;-34
2021/12/17 09:37:53;;;;;;;3.25;2.05;;;;;;;9.39;100.00;104250.75;5090136;28;20048;-35
2021/12/17 09:40:21;;;;;;;4.10;3.00;;;;;;;9.41;100.00;104256.94;5091061;28;20046;-33
2021/12/17 09:42:50;;;;;;;3.38;2.10;;;;;;;9.42;100.00;104258.66;5091119;28;20075;-32
2021/12/17 09:45:20;;;;;;;3.30;2.03;;;;;;;9.44;100.00;104270.47;5090530;28;20048;-37
2021/12/17 09:47:48;;;;;;;4.35;2.30;;;;;;;9.46;100.00;104265.56;5090877;28;20042;-38
2021/12/17 09:50:18;;;;;;;3.15;1.80;;;;;;;9.48;100.00;104266.22;5087699;28;20086;-34
2021/12/17 09:52:46;;;;;;;2.65;1.65;;;;;;;9.51;100.00;104275.03;5090297;28;20056;-35
2021/12/17 09:55:14;;;;;;;3.33;2.22;;;;;;;9.53;100.00;104275.69;5091023;28;20242;-36
2021/12/17 09:57:42;;;;;;;2.67;1.70;;;;;;;9.56;100.00;104272.47;5090469;28;20083;-36
2021/12/17 10:00:15;;;;;;;2.75;1.90;;;;;;;9.59;100.00;104279.56;5091278;28;20062;-29
2021/12/17 10:02:45;;;;;;;4.00;2.72;;;;;;;9.61;100.00;104285.75;5091335;28;20143;-37
2021/12/17 10:05:15;;;;;;;3.45;2.33;;;;;;;9.61;100.00;104275.47;5087167;28;20048;-35
2021/12/17 10:07:45;;;;;;;4.43;1.85;;;;;;;9.62;100.00;104273.53;5096890;28;20040;-32
2021/12/17 10:10:16;;;;;;;4.15;2.55;;;;;;;9.65;100.00;104275.91;5097922;28;20087;-37
2021/12/17 10:12:45;;;;;;;2.85;1.80;;;;;;;9.64;100.00;104283.41;5096719;28;20051;-33
2021/12/17 10:15:16;;;;;;;4.25;2.28;;;;;;;9.65;100.00;104281.50;5097696;28;20079;-34
2021/12/17 10:17:57;;;;;;;3.00;1.83;;;;;;;9.65;100.00;104271.19;5097330;28;20051;-35
2021/12/17 10:20:25;;;;;;;2.47;1.60;;;;;;;9.65;100.00;104276.78;5093987;28;20120;-36
2021/12/17 10:22:59;;;;;;;3.00;2.10;;;;;;;9.67;100.00;104283.00;5097760;28;20589;-35
2021/12/17 10:25:28;;;;;;;3.83;2.20;;;;;;;9.68;100.00;104276.38;5094521;28;20398;-36
2021/12/17 10:27:59;;;;;;;3.55;2.20;;;;;;;9.72;100.00;104276.81;5096507;28;20142;-38
2021/12/17 10:30:29;;;;;;;3.40;2.10;;;;;;;9.74;100.00;104274.69;5096463;28;20125;-34
2021/12/17 10:33:00;;;;;;;3.13;2.05;;;;;;;9.75;100.00;104276.41;5097033;28;20044;-39
2021/12/17 10:35:29;;;;;;;3.25;2.10;;;;;;;9.74;100.00;104283.03;5097551;28;20427;-33
2021/12/17 10:38:01;;;;;;;3.10;2.28;;;;;;;9.75;100.00;104276.41;5097670;28;20382;-39
2021/12/17 10:40:31;;;;;;;2.53;1.73;;;;;;;9.78;100.00;104280.69;5096474;28;20485;-39
2021/12/17 10:43:06;;;;;;;3.05;1.92;;;;;;;9.80;100.00;104278.53;5097473;28;20044;-36
2021/12/17 10:45:37;;;;;;;2.50;1.95;;;;;;;9.80;100.00;104276.59;5097395;28;20121;-39
2021/12/17 10:48:27;;;;;;;3.40;2.05;;;;;;;9.83;100.00;104275.31;5096928;28;20571;-41
2021/12/17 10:51:14;;;;;;;2.70;2.25;;;;;;;9.85;100.00;104273.19;5096903;28;20052;-37
2021/12/17 10:53:46;;;;;;;4.65;3.08;;;;;;;9.87;100.00;104273.84;5097768;28;20062;-38
2021/12/17 10:56:16;;;;;;;4.53;3.58;;;;;;;9.89;100.00;104278.13;5095690;28;20052;-33
2021/12/17 10:58:54;;;;;;;4.43;3.00;;;;;;;9.90;100.00;104274.28;5097708;28;20048;-33
2021/12/17 11:01:31;;;;;;;4.70;3.67;;;;;;;9.90;100.00;104270.63;5096366;28;20080;-32
2021/12/17 11:04:07;;;;;;;4.35;3.42;;;;;;;9.90;100.00;104265.91;5097908;28;20052;-37
2021/12/17 11:06:45;;;;;;;3.75;3.00;;;;;;;9.92;100.00;104271.28;5095996;28;20497;-35
2021/12/17 11:09:31;;;;;;;4.07;2.90;;;;;;;9.92;100.00;104271.28;5096797;28;20052;-33
2021/12/17 11:12:06;;;;;;;3.00;2.40;;;;;;;9.92;100.00;104269.34;5096874;28;20044;-37
2021/12/17 11:14:34;;;;;;;5.35;3.17;;;;;;;9.94;100.00;104270.00;5097404;28;20058;-37
2021/12/17 11:17:03;;;;;;;5.82;3.88;;;;;;;9.97;100.00;104264.00;5094564;28;20052;-31
2021/12/17 11:19:33;;;;;;;7.70;4.93;;;;;;;9.99;100.00;104266.59;5093464;28;20048;-35
2021/12/17 11:22:02;;;;;;;8.35;5.63;;;;;;;9.99;100.00;104273.00;5093733;28;20060;-41
2021/12/17 11:24:31;;;;;;;7.03;4.68;;;;;;;9.99;100.00;104264.63;5093341;28;20044;-36
2021/12/17 11:26:59;;;;;;;6.00;4.25;;;;;;;10.01;100.00;104265.28;5093277;28;20048;-38
2021/12/17 11:29:27;;;;;;;4.55;3.65;;;;;;;10.01;100.00;104270.84;5093331;28;20052;-32
2021/12/17 11:31:55;;;;;;;4.70;3.40;;;;;;;10.02;100.00;104264.19;5093680;28;20040;-33
2021/12/17 11:34:23;;;;;;;4.82;3.70;;;;;;;10.03;100.00;104262.28;5093443;28;20040;-35
2021/12/17 11:36:54;;;;;;;5.47;4.63;;;;;;;10.03;100.00;104268.72;5092430;28;20047;-37
2021/12/17 11:39:25;;;;;;;5.05;4.13;;;;;;;10.02;100.00;104272.56;5083134;28;20055;-39
2021/12/17 11:42:05;;;;;;;5.38;3.55;;;;;;;10.00;100.00;104276.66;5093270;28;20056;-34
2021/12/17 11:44:41;;;;;;;3.95;2.88;;;;;;;9.99;100.00;104274.94;5082361;28;20044;-36
2021/12/17 11:47:12;;;;;;;4.03;2.50;;;;;;;9.96;100.00;104278.16;5093250;28;20401;-34
2021/12/17 11:49:49;;;;;;;2.60;1.95;;;;;;;9.94;100.00;104266.34;5091592;28;20408;-40
2021/12/17 11:52:39;;;;;;;3.05;2.10;;;;;;;9.97;100.00;104274.31;5092616;28;20051;-41
2021/12/17 11:55:28;;;;;;;3.40;2.95;;;;;;;9.94;100.00;104258.84;5084496;28;20047;-38
2021/12/17 11:58:00;;;;;;;4.30;3.88;;;;;;;9.93;100.00;104262.69;5092120;28;20044;-35
2021/12/17 12:00:32;;;;;;;3.67;3.10;;;;;;;9.94;100.00;104260.78;5093109;28;20405;-34
2021/12/17 12:03:15;;;;;;;3.47;2.80;;;;;;;9.95;100.00;104262.50;5093199;28;20044;-34
2021/12/17 12:05:45;;;;;;;3.63;3.22;;;;;;;9.93;100.00;104261.84;5092820;28;20058;-37
2021/12/17 12:08:31;;;;;;;3.83;3.22;;;;;;;9.94;100.00;104258.84;5092509;28;20044;-34
2021/12/17 12:11:12;;;;;;;2.95;2.38;;;;;;;9.91;100.00;104256.47;5093054;28;20058;-34
2021/12/17 12:13:42;;;;;;;3.15;2.25;;;;;;;9.89;100.00;104253.03;5092095;28;20051;-39
2021/12/17 12:16:11;;;;;;;3.22;2.20;;;;;;;9.90;100.00;104248.31;5093139;28;20044;-40
2021/12/17 12:18:47;;;;;;;2.75;1.67;;;;;;;9.90;100.00;104256.69;5090423;28;20139;-36
2021/12/17 12:21:17;;;;;;;3.63;2.23;;;;;;;9.90;100.00;104256.69;5093045;28;20044;-37
2021/12/17 12:23:56;;;;;;;3.05;2.33;;;;;;;9.92;100.00;104257.34;5092471;28;20301;-34
2021/12/17 12:26:38;;;;;;;3.28;2.38;;;;;;;9.89;100.00;104255.81;5091925;28;20082;-33
2021/12/17 12:29:12;;;;;;;3.60;2.70;;;;;;;9.91;100.00;104259.25;5091484;28;20055;-36
2021/12/17 12:31:56;;;;;;;2.72;2.22;;;;;;;9.92;100.00;104255.41;5092933;28;20078;-39
2021/12/17 12:34:36;;;;;;;2.42;1.80;;;;;;;9.94;100.00;104261.63;5091398;28;20504;-34
2021/12/17 12:37:20;;;;;;;3.35;2.83;;;;;;;9.95;100.00;104254.13;5092760;28;20040;-35
2021/12/17 12:40:17;;;;;;;2.30;1.73;;;;;;;9.96;100.00;104255.84;5088015;28;20044;-34
2021/12/17 12:42:51;;;;;;;2.50;1.90;;;;;;;9.96;100.00;104258.63;5075596;28;20064;-37
2021/12/17 12:45:19;;;;;;;2.08;1.60;;;;;;;9.97;100.00;104252.84;5092250;28;20044;-32
2021/12/17 12:47:55;;;;;;;2.40;1.70;;;;;;;10.00;100.00;104254.31;5091132;28;20051;-32
2021/12/17 12:50:27;;;;;;;2.72;1.80;;;;;;;10.01;100.00;104254.13;5091969;28;20087;-38
2021/12/17 12:52:57;;;;;;;2.95;2.05;;;;;;;10.03;100.00;104251.97;5092180;28;20524;-38
2021/12/17 12:55:32;;;;;;;2.50;2.00;;;;;;;10.04;100.00;104247.25;5087671;28;20418;-37
2021/12/17 12:58:10;;;;;;;2.65;1.77;;;;;;;10.07;100.00;104245.97;5092013;28;20512;-32
2021/12/17 13:00:43;;;;;;;3.00;1.83;;;;;;;10.06;100.00;104252.63;5088011;28;20074;-37
2021/12/17 13:03:13;;;;;;;3.55;2.92;;;;;;;10.06;100.00;104245.09;5092212;28;20040;-36
2021/12/17 13:05:43;;;;;;;3.33;2.83;;;;;;;10.05;100.00;104248.09;5091958;28;20416;-39
2021/12/17 13:08:15;;;;;;;4.07;2.90;;;;;;;10.03;100.00;104256.69;5091289;28;20131;-37
2021/12/17 13:10:49;;;;;;;3.08;2.42;;;;;;;10.01;100.00;104248.53;5091254;28;20655;-37
2021/12/17 13:13:27;;;;;;;3.63;3.08;;;;;;;9.98;100.00;104246.19;5091982;28;20466;-34
2021/12/17 13:16:04;;;;;;;2.40;2.00;;;;;;;9.96;100.00;104242.75;5090799;28;20481;-32
2021/12/17 13:21:33;;;;;;;2.60;2.22;;;;;;;9.95;100.00;104246.63;5091471;28;20043;-31
2021/12/17 13:24:12;;;;;;;;;;;;;;;9.90;100.00;104246.38;5091146;28;20052;-34
2021/12/17 13:26:44;;;;;;;2.15;1.60;;;;;;;9.86;100.00;104253.44;5090242;28;20340;-41
2021/12/17 13:29:15;;;;;;;2.67;2.05;;;;;;;9.88;100.00;104247.66;5089440;28;20051;-36
2021/12/17 13:31:50;;;;;;;2.83;1.80;;;;;;;9.89;100.00;104246.59;5091976;28;20078;-40
2021/12/17 13:34:22;;;;;;;3.25;2.78;;;;;;;9.89;100.00;104250.25;5091347;28;20416;-32
2021/12/17 13:36:54;;;;;;;2.58;1.85;;;;;;;9.89;100.00;104249.38;5087803;28;20051;-33
2021/12/17 13:39:25;;;;;;;2.80;2.30;;;;;;;9.88;100.00;104251.31;5091403;28;20047;-33
2021/12/17 13:41:55;;;;;;;2.28;1.70;;;;;;;9.88;100.00;104251.31;5090472;28;20044;-34
2021/12/17 13:44:40;;;;;;;2.30;1.90;;;;;;;9.88;100.00;104251.31;5090736;28;20032;-35
2021/12/17 13:47:20;;;;;;;3.72;2.58;;;;;;;9.86;100.00;104245.09;5086573;28;20055;-37
2021/12/17 13:49:50;;;;;;;4.88;4.18;;;;;;;9.84;100.00;104250.00;5090224;28;20044;-37
2021/12/17 13:52:22;;;;;;;4.97;4.10;;;;;;;9.81;100.00;104253.22;5087358;28;20496;-42
2021/12/17 13:54:52;;;;;;;5.53;3.50;;;;;;;9.79;100.00;104255.34;5091173;28;20060;-34
2021/12/17 13:57:23;;;;;;;4.60;3.45;;;;;;;9.79;100.00;104244.19;5089268;28;20047;-41
2021/12/17 13:59:52;;;;;;;3.75;2.97;;;;;;;9.79;100.00;104248.94;5091624;28;20065;-35
2021/12/17 14:02:22;;;;;;;3.65;2.88;;;;;;;9.78;100.00;104252.81;5090405;28;20040;-37
2021/12/17 14:05:03;;;;;;;5.97;3.58;;;;;;;9.75;100.00;104251.28;5091093;28;20134;-38
2021/12/17 14:07:34;;;;;;;3.38;2.47;;;;;;;9.71;100.00;104247.19;5090975;28;20056;-39
2021/12/17 14:10:08;;;;;;;7.32;3.65;;;;;;;9.71;100.00;104241.63;5089415;28;20518;-36
2021/12/17 14:12:40;;;;;;;3.42;2.53;;;;;;;9.71;100.00;104240.75;5088859;28;20040;-43